sensor_id;sensor_type;location;lat;lon;timestamp;pressure;altitude;pressure_sealevel;temperature;humidity
76164;BME280;64897;50.816;4.422;2023-03-08T00:02:00;99147.72;;;16.09;43.47
76164;BME280;64897;50.816;4.422;2023-03-08T00:04:27;99146.25;;;16.07;43.84
76164;BME280;64897;50.816;4.422;2023-03-08T00:06:54;99147.25;;;16.06;43.98
76164;BME280;64897;50.816;4.422;2023-03-08T00:09:20;99140.31;;;16.05;43.60
76164;BME280;64897;50.816;4.422;2023-03-08T00:11:47;99144.06;;;16.10;43.78
76164;BME280;64897;50.816;4.422;2023-03-08T00:14:14;99126.63;;;16.09;43.46
76164;BME280;64897;50.816;4.422;2023-03-08T00:16:41;99125.97;;;16.07;43.43
76164;BME280;64897;50.816;4.422;2023-03-08T00:19:07;99126.25;;;16.12;43.50
76164;BME280;64897;50.816;4.422;2023-03-08T00:21:34;99128.25;;;16.10;43.72
76164;BME280;64897;50.816;4.422;2023-03-08T00:24:01;99124.16;;;16.08;43.30
76164;BME280;64897;50.816;4.422;2023-03-08T00:26:27;99122.34;;;16.08;43.12
76164;BME280;64897;50.816;4.422;2023-03-08T00:28:54;99122.97;;;16.10;43.47
76164;BME280;64897;50.816;4.422;2023-03-08T00:31:21;99128.16;;;16.04;43.47
76164;BME280;64897;50.816;4.422;2023-03-08T00:33:52;99119.69;;;16.08;43.27
76164;BME280;64897;50.816;4.422;2023-03-08T00:36:20;99123.31;;;16.07;43.73
76164;BME280;64897;50.816;4.422;2023-03-08T00:38:48;99111.63;;;16.10;43.60
76164;BME280;64897;50.816;4.422;2023-03-08T00:41:17;99109.53;;;16.05;43.56
76164;BME280;64897;50.816;4.422;2023-03-08T00:43:44;99106.25;;;16.03;43.24
76164;BME280;64897;50.816;4.422;2023-03-08T00:46:12;99112.63;;;16.09;43.10
76164;BME280;64897;50.816;4.422;2023-03-08T00:48:39;99107.50;;;16.07;43.32
76164;BME280;64897;50.816;4.422;2023-03-08T00:51:06;99100.00;;;16.04;42.97
76164;BME280;64897;50.816;4.422;2023-03-08T00:53:33;99098.97;;;16.05;43.47
76164;BME280;64897;50.816;4.422;2023-03-08T00:56:00;99088.44;;;16.05;43.00
76164;BME280;64897;50.816;4.422;2023-03-08T00:58:28;99085.81;;;16.05;43.04
76164;BME280;64897;50.816;4.422;2023-03-08T01:00:56;99078.91;;;16.04;43.07
76164;BME280;64897;50.816;4.422;2023-03-08T01:03:23;99069.53;;;16.02;43.38
76164;BME280;64897;50.816;4.422;2023-03-08T01:05:53;99067.34;;;16.05;43.26
76164;BME280;64897;50.816;4.422;2023-03-08T01:08:21;99066.72;;;16.03;42.88
76164;BME280;64897;50.816;4.422;2023-03-08T01:10:50;99052.72;;;16.03;43.02
76164;BME280;64897;50.816;4.422;2023-03-08T01:13:18;99056.00;;;16.05;43.03
76164;BME280;64897;50.816;4.422;2023-03-08T01:15:45;99054.38;;;16.04;43.25
76164;BME280;64897;50.816;4.422;2023-03-08T01:18:12;99051.91;;;16.02;43.33
76164;BME280;64897;50.816;4.422;2023-03-08T01:20:39;99041.38;;;16.02;42.99
76164;BME280;64897;50.816;4.422;2023-03-08T01:23:06;99052.38;;;16.06;43.29
76164;BME280;64897;50.816;4.422;2023-03-08T01:25:33;99043.63;;;16.05;43.09
76164;BME280;64897;50.816;4.422;2023-03-08T01:28:00;99048.28;;;16.03;43.09
76164;BME280;64897;50.816;4.422;2023-03-08T01:30:27;99037.38;;;16.06;43.11
76164;BME280;64897;50.816;4.422;2023-03-08T01:32:53;99027.66;;;16.07;42.74
76164;BME280;64897;50.816;4.422;2023-03-08T01:35:20;99019.28;;;16.03;43.17
76164;BME280;64897;50.816;4.422;2023-03-08T01:37:50;99015.00;;;16.02;42.86
76164;BME280;64897;50.816;4.422;2023-03-08T01:40:20;99012.00;;;16.05;42.91
76164;BME280;64897;50.816;4.422;2023-03-08T01:42:47;99005.91;;;16.05;42.65
76164;BME280;64897;50.816;4.422;2023-03-08T01:48:20;98996.56;;;16.02;42.77
76164;BME280;64897;50.816;4.422;2023-03-08T01:50:49;98997.59;;;16.01;43.16
76164;BME280;64897;50.816;4.422;2023-03-08T01:53:16;98984.94;;;15.96;43.12
76164;BME280;64897;50.816;4.422;2023-03-08T01:55:43;98984.41;;;16.01;42.66
76164;BME280;64897;50.816;4.422;2023-03-08T01:58:10;98971.59;;;15.98;42.95
76164;BME280;64897;50.816;4.422;2023-03-08T02:00:37;98969.59;;;16.00;42.77
76164;BME280;64897;50.816;4.422;2023-03-08T02:03:07;98961.06;;;15.98;43.01
76164;BME280;64897;50.816;4.422;2023-03-08T02:05:42;98956.59;;;15.98;43.05
76164;BME280;64897;50.816;4.422;2023-03-08T02:08:09;98946.25;;;15.97;42.79
76164;BME280;64897;50.816;4.422;2023-03-08T02:10:36;98946.88;;;15.99;43.01
76164;BME280;64897;50.816;4.422;2023-03-08T02:13:05;98943.88;;;16.02;43.01
76164;BME280;64897;50.816;4.422;2023-03-08T02:15:32;98951.31;;;15.98;42.84
76164;BME280;64897;50.816;4.422;2023-03-08T02:17:59;98937.97;;;16.00;42.70
76164;BME280;64897;50.816;4.422;2023-03-08T02:20:32;98935.50;;;15.98;42.95
76164;BME280;64897;50.816;4.422;2023-03-08T02:25:38;98918.06;;;15.98;42.73
76164;BME280;64897;50.816;4.422;2023-03-08T02:28:05;98908.38;;;15.98;42.86
76164;BME280;64897;50.816;4.422;2023-03-08T02:30:35;98900.09;;;16.01;43.00
76164;BME280;64897;50.816;4.422;2023-03-08T02:33:02;98901.09;;;16.00;42.58
76164;BME280;64897;50.816;4.422;2023-03-08T02:35:29;98897.00;;;15.98;42.85
76164;BME280;64897;50.816;4.422;2023-03-08T02:37:56;98894.53;;;15.96;42.63
76164;BME280;64897;50.816;4.422;2023-03-08T02:40:23;98887.28;;;15.98;42.79
76164;BME280;64897;50.816;4.422;2023-03-08T02:42:50;98875.94;;;15.98;42.94
76164;BME280;64897;50.816;4.422;2023-03-08T02:45:17;98875.94;;;15.98;42.95
76164;BME280;64897;50.816;4.422;2023-03-08T02:47:44;98874.91;;;15.98;42.87
76164;BME280;64897;50.816;4.422;2023-03-08T02:50:11;98871.09;;;16.01;42.84
76164;BME280;64897;50.816;4.422;2023-03-08T02:52:37;98864.56;;;15.97;42.46
76164;BME280;64897;50.816;4.422;2023-03-08T02:55:04;98866.56;;;15.95;42.61
76164;BME280;64897;50.816;4.422;2023-03-08T02:57:31;98855.22;;;15.94;42.97
76164;BME280;64897;50.816;4.422;2023-03-08T02:59:58;98850.78;;;15.95;43.08
76164;BME280;64897;50.816;4.422;2023-03-08T03:02:25;98848.75;;;15.97;42.86
76164;BME280;64897;50.816;4.422;2023-03-08T03:04:51;98840.41;;;15.93;43.14
76164;BME280;64897;50.816;4.422;2023-03-08T03:07:18;98835.13;;;15.93;42.47
76164;BME280;64897;50.816;4.422;2023-03-08T03:09:45;98830.06;;;15.92;42.46
76164;BME280;64897;50.816;4.422;2023-03-08T03:12:11;98819.78;;;15.97;42.83
76164;BME280;64897;50.816;4.422;2023-03-08T03:14:38;98820.13;;;15.94;42.98
76164;BME280;64897;50.816;4.422;2023-03-08T03:17:05;98821.34;;;15.91;42.57
76164;BME280;64897;50.816;4.422;2023-03-08T03:19:31;98823.41;;;15.96;42.79
76164;BME280;64897;50.816;4.422;2023-03-08T03:21:58;98814.25;;;15.92;42.60
76164;BME280;64897;50.816;4.422;2023-03-08T03:24:25;98812.59;;;15.91;42.57
76164;BME280;64897;50.816;4.422;2023-03-08T03:26:52;98811.25;;;15.95;42.62
76164;BME280;64897;50.816;4.422;2023-03-08T03:29:19;98815.25;;;15.91;42.35
76164;BME280;64897;50.816;4.422;2023-03-08T03:31:46;98799.06;;;15.94;42.49
76164;BME280;64897;50.816;4.422;2023-03-08T03:34:14;98796.44;;;15.94;42.64
76164;BME280;64897;50.816;4.422;2023-03-08T03:36:40;98784.63;;;15.90;42.63
76164;BME280;64897;50.816;4.422;2023-03-08T03:39:07;98781.00;;;15.91;42.75
76164;BME280;64897;50.816;4.422;2023-03-08T03:41:34;98766.84;;;15.92;42.88
76164;BME280;64897;50.816;4.422;2023-03-08T03:44:01;98761.72;;;15.90;42.70
76164;BME280;64897;50.816;4.422;2023-03-08T03:46:27;98758.47;;;15.88;42.52
76164;BME280;64897;50.816;4.422;2023-03-08T03:48:54;98751.84;;;15.92;42.38
76164;BME280;64897;50.816;4.422;2023-03-08T03:51:22;98750.19;;;15.91;42.37
76164;BME280;64897;50.816;4.422;2023-03-08T03:53:49;98741.47;;;15.91;42.40
76164;BME280;64897;50.816;4.422;2023-03-08T03:56:21;98730.94;;;15.91;42.26
76164;BME280;64897;50.816;4.422;2023-03-08T03:58:49;98728.94;;;15.93;42.75
76164;BME280;64897;50.816;4.422;2023-03-08T04:01:23;98724.69;;;15.92;42.26
76164;BME280;64897;50.816;4.422;2023-03-08T04:03:51;98713.50;;;15.90;42.54
76164;BME280;64897;50.816;4.422;2023-03-08T04:06:24;98713.75;;;15.95;42.28
76164;BME280;64897;50.816;4.422;2023-03-08T04:09:05;98691.41;;;15.91;42.56
76164;BME280;64897;50.816;4.422;2023-03-08T04:11:34;98694.25;;;15.89;42.27
76164;BME280;64897;50.816;4.422;2023-03-08T04:14:02;98670.25;;;15.78;42.25
76164;BME280;64897;50.816;4.422;2023-03-08T04:16:32;98691.41;;;15.91;42.55
76164;BME280;64897;50.816;4.422;2023-03-08T04:19:01;98686.16;;;15.91;42.31
76164;BME280;64897;50.816;4.422;2023-03-08T04:21:29;98685.53;;;15.89;42.27
76164;BME280;64897;50.816;4.422;2023-03-08T04:23:56;98684.88;;;15.87;42.22
76164;BME280;64897;50.816;4.422;2023-03-08T04:26:23;98687.16;;;15.90;42.32
76164;BME280;64897;50.816;4.422;2023-03-08T04:28:51;98684.50;;;15.90;42.34
76164;BME280;64897;50.816;4.422;2023-03-08T04:31:20;98682.91;;;15.89;42.50
76164;BME280;64897;50.816;4.422;2023-03-08T04:33:48;98681.25;;;15.88;42.19
76164;BME280;64897;50.816;4.422;2023-03-08T04:36:15;98680.66;;;15.86;42.51
76164;BME280;64897;50.816;4.422;2023-03-08T04:38:43;98672.38;;;15.89;42.36
76164;BME280;64897;50.816;4.422;2023-03-08T04:41:11;98672.75;;;15.86;42.29
76164;BME280;64897;50.816;4.422;2023-03-08T04:43:49;98652.66;;;15.85;42.13
76164;BME280;64897;50.816;4.422;2023-03-08T04:46:17;98644.38;;;15.88;42.64
76164;BME280;64897;50.816;4.422;2023-03-08T04:48:45;98646.41;;;15.86;41.97
76164;BME280;64897;50.816;4.422;2023-03-08T04:51:14;98637.47;;;15.87;42.16
76164;BME280;64897;50.816;4.422;2023-03-08T04:53:41;98634.22;;;15.85;42.26
76164;BME280;64897;50.816;4.422;2023-03-08T04:56:12;98623.31;;;15.88;42.71
76164;BME280;64897;50.816;4.422;2023-03-08T04:58:39;98619.44;;;15.84;42.08
76164;BME280;64897;50.816;4.422;2023-03-08T05:01:19;98613.97;;;15.85;42.04
76164;BME280;64897;50.816;4.422;2023-03-08T05:03:48;98608.50;;;15.87;42.31
76164;BME280;64897;50.816;4.422;2023-03-08T05:06:16;98606.28;;;15.84;42.14
76164;BME280;64897;50.816;4.422;2023-03-08T05:08:43;98597.78;;;15.88;41.95
76164;BME280;64897;50.816;4.422;2023-03-08T05:11:10;98594.53;;;15.86;42.02
76164;BME280;64897;50.816;4.422;2023-03-08T05:13:39;98583.56;;;15.83;42.61
76164;BME280;64897;50.816;4.422;2023-03-08T05:16:07;98574.25;;;15.87;41.91
76164;BME280;64897;50.816;4.422;2023-03-08T05:18:34;98560.47;;;15.85;41.94
76164;BME280;64897;50.816;4.422;2023-03-08T05:21:04;98553.78;;;15.82;42.38
76164;BME280;64897;50.816;4.422;2023-03-08T05:23:31;98549.31;;;15.83;42.39
76164;BME280;64897;50.816;4.422;2023-03-08T05:25:59;98541.59;;;15.81;42.07
76164;BME280;64897;50.816;4.422;2023-03-08T05:28:29;98536.16;;;15.83;42.06
76164;BME280;64897;50.816;4.422;2023-03-08T05:31:13;98534.94;;;15.85;42.26
76164;BME280;64897;50.816;4.422;2023-03-08T05:33:41;98537.38;;;15.87;42.04
76164;BME280;64897;50.816;4.422;2023-03-08T05:36:09;98527.03;;;15.85;42.14
76164;BME280;64897;50.816;4.422;2023-03-08T05:38:36;98502.34;;;15.86;42.41
76164;BME280;64897;50.816;4.422;2023-03-08T05:41:07;98496.03;;;15.81;42.24
76164;BME280;64897;50.816;4.422;2023-03-08T05:43:34;98490.75;;;15.81;42.45
76164;BME280;64897;50.816;4.422;2023-03-08T05:46:05;98491.94;;;15.78;42.58
76164;BME280;64897;50.816;4.422;2023-03-08T05:48:34;98482.84;;;15.81;42.23
76164;BME280;64897;50.816;4.422;2023-03-08T05:51:08;98464.81;;;15.78;42.32
76164;BME280;64897;50.816;4.422;2023-03-08T05:53:36;98464.03;;;15.84;42.28
76164;BME280;64897;50.816;4.422;2023-03-08T05:56:20;98463.59;;;15.80;42.38
76164;BME280;64897;50.816;4.422;2023-03-08T05:58:48;98450.63;;;15.79;42.35
76164;BME280;64897;50.816;4.422;2023-03-08T06:01:16;98463.22;;;15.83;42.04
76164;BME280;64897;50.816;4.422;2023-03-08T06:03:44;98466.03;;;15.82;41.90
76164;BME280;64897;50.816;4.422;2023-03-08T06:06:12;98468.66;;;15.82;42.38
76164;BME280;64897;50.816;4.422;2023-03-08T06:08:39;98474.56;;;15.84;42.08
76164;BME280;64897;50.816;4.422;2023-03-08T06:11:07;98474.13;;;15.80;42.44
76164;BME280;64897;50.816;4.422;2023-03-08T06:13:34;98471.50;;;15.80;42.48
76164;BME280;64897;50.816;4.422;2023-03-08T06:16:02;98468.06;;;15.80;42.16
76164;BME280;64897;50.816;4.422;2023-03-08T06:18:29;98459.34;;;15.79;42.34
76164;BME280;64897;50.816;4.422;2023-03-08T06:21:08;98471.06;;;15.77;42.06
76164;BME280;64897;50.816;4.422;2023-03-08T06:23:36;98462.78;;;15.80;42.32
76164;BME280;64897;50.816;4.422;2023-03-08T06:26:05;98462.78;;;15.80;42.15
76164;BME280;64897;50.816;4.422;2023-03-08T06:28:32;98461.16;;;15.79;42.31
76164;BME280;64897;50.816;4.422;2023-03-08T06:30:59;98458.72;;;15.77;41.95
76164;BME280;64897;50.816;4.422;2023-03-08T06:33:28;98454.06;;;15.79;41.99
76164;BME280;64897;50.816;4.422;2023-03-08T06:36:04;98446.59;;;15.83;41.96
76164;BME280;64897;50.816;4.422;2023-03-08T06:38:33;98443.34;;;15.81;41.90
76164;BME280;64897;50.816;4.422;2023-03-08T06:41:00;98432.00;;;15.80;41.97
76164;BME280;64897;50.816;4.422;2023-03-08T06:43:27;98427.56;;;15.81;42.23
76164;BME280;64897;50.816;4.422;2023-03-08T06:45:54;98422.28;;;15.81;42.08
76164;BME280;64897;50.816;4.422;2023-03-08T06:48:21;98404.69;;;15.88;41.97
76164;BME280;64897;50.816;4.422;2023-03-08T06:50:48;98393.09;;;15.82;42.04
76164;BME280;64897;50.816;4.422;2023-03-08T06:53:15;98394.31;;;15.80;42.77
76164;BME280;64897;50.816;4.422;2023-03-08T06:55:42;98393.31;;;15.81;42.29
76164;BME280;64897;50.816;4.422;2023-03-08T06:58:09;98384.38;;;15.82;42.55
76164;BME280;64897;50.816;4.422;2023-03-08T07:00:36;98384.19;;;15.83;42.64
76164;BME280;64897;50.816;4.422;2023-03-08T07:03:03;98376.09;;;15.85;42.23
76164;BME280;64897;50.816;4.422;2023-03-08T07:05:30;98374.06;;;15.87;42.75
76164;BME280;64897;50.816;4.422;2023-03-08T07:07:57;98372.84;;;15.83;42.87
76164;BME280;64897;50.816;4.422;2023-03-08T07:10:24;98363.94;;;15.84;42.53
76164;BME280;64897;50.816;4.422;2023-03-08T07:12:51;98371.03;;;15.83;42.55
76164;BME280;64897;50.816;4.422;2023-03-08T07:15:20;98363.53;;;15.87;42.88
76164;BME280;64897;50.816;4.422;2023-03-08T07:17:49;98348.94;;;15.84;43.14
76164;BME280;64897;50.816;4.422;2023-03-08T07:20:18;98350.16;;;15.82;42.81
76164;BME280;64897;50.816;4.422;2023-03-08T07:22:45;98351.78;;;15.83;42.99
76164;BME280;64897;50.816;4.422;2023-03-08T07:25:17;98347.13;;;15.85;43.03
76164;BME280;64897;50.816;4.422;2023-03-08T07:27:44;98341.66;;;15.86;42.73
76164;BME280;64897;50.816;4.422;2023-03-08T07:30:13;98335.59;;;15.86;42.43
76164;BME280;64897;50.816;4.422;2023-03-08T07:32:40;98324.63;;;15.82;42.75
76164;BME280;64897;50.816;4.422;2023-03-08T07:35:13;98321.00;;;15.83;42.98
76164;BME280;64897;50.816;4.422;2023-03-08T07:37:42;98321.59;;;15.85;42.78
76164;BME280;64897;50.816;4.422;2023-03-08T07:40:10;98322.81;;;15.83;43.03
76164;BME280;64897;50.816;4.422;2023-03-08T07:42:37;98320.56;;;15.80;43.06
76164;BME280;64897;50.816;4.422;2023-03-08T07:45:04;98329.91;;;15.82;42.84
76164;BME280;64897;50.816;4.422;2023-03-08T07:47:31;98319.34;;;15.82;42.90
76164;BME280;64897;50.816;4.422;2023-03-08T07:49:58;98320.34;;;15.81;42.74
76164;BME280;64897;50.816;4.422;2023-03-08T07:52:27;98320.16;;;15.83;42.56
76164;BME280;64897;50.816;4.422;2023-03-08T07:54:54;98329.06;;;15.82;42.71
76164;BME280;64897;50.816;4.422;2023-03-08T07:57:21;98324.44;;;15.84;42.74
76164;BME280;64897;50.816;4.422;2023-03-08T07:59:49;98327.47;;;15.81;42.40
76164;BME280;64897;50.816;4.422;2023-03-08T08:02:17;98323.81;;;15.82;42.41
76164;BME280;64897;50.816;4.422;2023-03-08T08:04:44;98327.47;;;15.81;42.75
76164;BME280;64897;50.816;4.422;2023-03-08T08:07:13;98331.09;;;15.80;42.64
76164;BME280;64897;50.816;4.422;2023-03-08T08:09:40;98329.91;;;15.82;42.63
76164;BME280;64897;50.816;4.422;2023-03-08T08:12:08;98323.38;;;15.78;42.85
76164;BME280;64897;50.816;4.422;2023-03-08T08:14:35;98322.59;;;15.78;42.28
76164;BME280;64897;50.816;4.422;2023-03-08T08:17:01;98310.03;;;15.80;42.49
76164;BME280;64897;50.816;4.422;2023-03-08T08:19:28;98298.88;;;15.78;42.69
76164;BME280;64897;50.816;4.422;2023-03-08T08:21:57;98314.09;;;15.82;42.23
76164;BME280;64897;50.816;4.422;2023-03-08T08:24:24;98304.38;;;15.83;42.19
76164;BME280;64897;50.816;4.422;2023-03-08T08:26:52;98301.53;;;15.84;42.07
76164;BME280;64897;50.816;4.422;2023-03-08T08:29:19;98316.72;;;15.82;42.46
76164;BME280;64897;50.816;4.422;2023-03-08T08:31:45;98307.00;;;15.83;42.30
76164;BME280;64897;50.816;4.422;2023-03-08T08:34:12;98317.53;;;15.83;42.27
76164;BME280;64897;50.816;4.422;2023-03-08T08:36:39;98326.25;;;15.83;42.41
76164;BME280;64897;50.816;4.422;2023-03-08T08:39:06;98319.34;;;15.82;42.58
76164;BME280;64897;50.816;4.422;2023-03-08T08:41:33;98302.75;;;15.82;42.16
76164;BME280;64897;50.816;4.422;2023-03-08T08:43:59;98298.50;;;15.81;42.31
76164;BME280;64897;50.816;4.422;2023-03-08T08:46:27;98296.47;;;15.83;42.55
76164;BME280;64897;50.816;4.422;2023-03-08T08:48:55;98296.88;;;15.80;42.64
76164;BME280;64897;50.816;4.422;2023-03-08T08:51:21;98290.81;;;15.86;42.50
76164;BME280;64897;50.816;4.422;2023-03-08T08:53:48;98281.88;;;15.87;42.30
76164;BME280;64897;50.816;4.422;2023-03-08T08:56:22;98277.63;;;15.86;42.59
76164;BME280;64897;50.816;4.422;2023-03-08T08:58:49;98280.28;;;15.86;42.78
76164;BME280;64897;50.816;4.422;2023-03-08T09:01:18;98278.25;;;15.88;42.50
76164;BME280;64897;50.816;4.422;2023-03-08T09:03:46;98274.41;;;15.90;42.84
76164;BME280;64897;50.816;4.422;2023-03-08T09:06:14;98287.78;;;15.89;42.94
76164;BME280;64897;50.816;4.422;2023-03-08T09:08:42;98263.25;;;15.88;42.61
76164;BME280;64897;50.816;4.422;2023-03-08T09:11:09;98257.38;;;15.93;42.50
76164;BME280;64897;50.816;4.422;2023-03-08T09:13:36;98257.00;;;15.89;42.78
76164;BME280;64897;50.816;4.422;2023-03-08T09:16:22;98249.88;;;15.90;42.43
76164;BME280;64897;50.816;4.422;2023-03-08T09:18:50;98255.78;;;15.92;42.69
76164;BME280;64897;50.816;4.422;2023-03-08T09:21:17;98252.50;;;15.90;42.88
76164;BME280;64897;50.816;4.422;2023-03-08T09:23:45;98265.88;;;15.88;43.35
76164;BME280;64897;50.816;4.422;2023-03-08T09:26:12;98266.72;;;15.89;44.00
76164;BME280;64897;50.816;4.422;2023-03-08T09:28:39;98276.22;;;15.90;44.57
76164;BME280;64897;50.816;4.422;2023-03-08T09:31:08;98279.66;;;15.90;44.99
76164;BME280;64897;50.816;4.422;2023-03-08T09:33:46;98277.84;;;15.91;45.26
76164;BME280;64897;50.816;4.422;2023-03-08T09:36:13;98274.81;;;15.94;44.93
76164;BME280;64897;50.816;4.422;2023-03-08T09:38:41;98275.25;;;15.98;44.61
76164;BME280;64897;50.816;4.422;2023-03-08T09:44:49;98266.31;;;15.98;44.44
76164;BME280;64897;50.816;4.422;2023-03-08T09:49:53;98260.25;;;15.98;44.90
76164;BME280;64897;50.816;4.422;2023-03-08T09:52:28;98264.88;;;15.96;44.66
76164;BME280;64897;50.816;4.422;2023-03-08T09:54:58;98253.75;;;15.94;44.57
76164;BME280;64897;50.816;4.422;2023-03-08T09:57:38;98248.47;;;15.94;44.67
76164;BME280;64897;50.816;4.422;2023-03-08T10:00:09;98248.91;;;15.98;44.45
76164;BME280;64897;50.816;4.422;2023-03-08T10:02:53;98215.63;;;15.77;44.48
76164;BME280;64897;50.816;4.422;2023-03-08T10:05:51;98247.28;;;16.03;44.48
76164;BME280;64897;50.816;4.422;2023-03-08T10:08:38;98246.06;;;16.06;44.98
76164;BME280;64897;50.816;4.422;2023-03-08T10:13:59;98241.81;;;16.05;46.66
76164;BME280;64897;50.816;4.422;2023-03-08T10:16:35;98235.94;;;16.09;47.21
76164;BME280;64897;50.816;4.422;2023-03-08T10:21:46;98238.38;;;16.04;47.53
76164;BME280;64897;50.816;4.422;2023-03-08T10:24:30;98238.38;;;16.04;47.77
76164;BME280;64897;50.816;4.422;2023-03-08T10:27:23;98232.28;;;16.04;47.69
76164;BME280;64897;50.816;4.422;2023-03-08T10:29:55;98226.22;;;16.03;47.53
76164;BME280;64897;50.816;4.422;2023-03-08T10:32:24;98228.63;;;16.05;47.60
76164;BME280;64897;50.816;4.422;2023-03-08T10:34:51;98224.19;;;16.05;47.91
76164;BME280;64897;50.816;4.422;2023-03-08T10:37:21;98216.88;;;16.07;48.65
76164;BME280;64897;50.816;4.422;2023-03-08T10:39:53;98214.25;;;16.07;48.09
76164;BME280;64897;50.816;4.422;2023-03-08T10:42:25;98211.59;;;16.07;48.08
76164;BME280;64897;50.816;4.422;2023-03-08T10:45:09;98214.25;;;16.07;49.08
76164;BME280;64897;50.816;4.422;2023-03-08T10:47:40;98208.78;;;16.09;48.63
76164;BME280;64897;50.816;4.422;2023-03-08T10:52:40;98215.06;;;16.14;48.10
76164;BME280;64897;50.816;4.422;2023-03-08T10:55:15;98224.22;;;16.18;48.38
76164;BME280;64897;50.816;4.422;2023-03-08T11:03:23;98218.94;;;16.31;47.34
76164;BME280;64897;50.816;4.422;2023-03-08T11:05:56;98204.94;;;16.24;46.82
76164;BME280;64897;50.816;4.422;2023-03-08T11:08:27;98205.75;;;16.25;46.87
76164;BME280;64897;50.816;4.422;2023-03-08T11:11:12;98214.88;;;16.22;46.90
76164;BME280;64897;50.816;4.422;2023-03-08T11:13:47;98217.50;;;16.22;47.20
76164;BME280;64897;50.816;4.422;2023-03-08T11:16:39;98208.59;;;16.23;47.26
76164;BME280;64897;50.816;4.422;2023-03-08T11:19:44;98204.31;;;16.22;46.74
76164;BME280;64897;50.816;4.422;2023-03-08T11:22:21;98204.94;;;16.24;47.17
76164;BME280;64897;50.816;4.422;2023-03-08T11:30:29;98177.19;;;16.15;46.84
76164;BME280;64897;50.816;4.422;2023-03-08T11:38:30;98207.56;;;16.24;46.38
76164;BME280;64897;50.816;4.422;2023-03-08T11:41:04;98208.41;;;16.18;46.41
76164;BME280;64897;50.816;4.422;2023-03-08T11:49:35;98206.53;;;16.19;46.22
76164;BME280;64897;50.816;4.422;2023-03-08T12:00:52;98217.72;;;16.14;45.51
76164;BME280;64897;50.816;4.422;2023-03-08T12:03:32;98218.72;;;16.13;45.99
76164;BME280;64897;50.816;4.422;2023-03-08T12:06:22;98203.94;;;16.12;45.81
76164;BME280;64897;50.816;4.422;2023-03-08T12:11:47;98211.19;;;16.10;45.36
76164;BME280;64897;50.816;4.422;2023-03-08T12:14:22;98209.19;;;16.12;45.86
76164;BME280;64897;50.816;4.422;2023-03-08T12:19:45;98188.53;;;16.09;45.61
76164;BME280;64897;50.816;4.422;2023-03-08T12:31:22;98196.63;;;16.08;45.26
76164;BME280;64897;50.816;4.422;2023-03-08T12:33:52;98197.25;;;16.10;45.27
76164;BME280;64897;50.816;4.422;2023-03-08T12:36:20;98192.56;;;16.05;45.43
76164;BME280;64897;50.816;4.422;2023-03-08T12:38:51;98186.28;;;16.06;45.21
76164;BME280;64897;50.816;4.422;2023-03-08T12:41:31;98181.03;;;16.06;44.92
76164;BME280;64897;50.816;4.422;2023-03-08T12:44:24;98188.94;;;16.06;44.88
76164;BME280;64897;50.816;4.422;2023-03-08T12:46:58;98193.78;;;16.09;44.80
76164;BME280;64897;50.816;4.422;2023-03-08T12:49:33;98194.38;;;16.11;45.29
76164;BME280;64897;50.816;4.422;2023-03-08T12:57:47;98193.16;;;16.07;45.23
76164;BME280;64897;50.816;4.422;2023-03-08T13:00:36;98193.78;;;16.09;45.07
76164;BME280;64897;50.816;4.422;2023-03-08T13:05:39;98194.78;;;16.08;45.15
76164;BME280;64897;50.816;4.422;2023-03-08T13:13:47;98192.75;;;16.10;44.86
76164;BME280;64897;50.816;4.422;2023-03-08T13:16:19;98184.63;;;15.79;44.34
76164;BME280;64897;50.816;4.422;2023-03-08T13:18:48;98172.22;;;15.60;44.55
76164;BME280;64897;50.816;4.422;2023-03-08T13:21:22;98177.53;;;15.66;45.62
76164;BME280;64897;50.816;4.422;2023-03-08T13:24:02;98184.03;;;15.77;45.83
76164;BME280;64897;50.816;4.422;2023-03-08T13:29:30;98188.66;;;15.81;45.43
76164;BME280;64897;50.816;4.422;2023-03-08T13:32:03;98188.06;;;15.79;45.64
76164;BME280;64897;50.816;4.422;2023-03-08T13:34:33;98183.63;;;15.80;45.91
76164;BME280;64897;50.816;4.422;2023-03-08T13:37:00;98186.84;;;15.82;45.86
76164;BME280;64897;50.816;4.422;2023-03-08T13:39:29;98183.22;;;15.96;46.12
76164;BME280;64897;50.816;4.422;2023-03-08T13:42:08;98192.38;;;16.07;45.55
76164;BME280;64897;50.816;4.422;2023-03-08T13:44:35;98189.31;;;15.96;45.99
76164;BME280;64897;50.816;4.422;2023-03-08T13:47:11;98191.13;;;15.89;45.76
76164;BME280;64897;50.816;4.422;2023-03-08T13:49:42;98197.41;;;15.88;45.76
76164;BME280;64897;50.816;4.422;2023-03-08T13:52:18;98194.97;;;15.87;45.82
76164;BME280;64897;50.816;4.422;2023-03-08T13:54:52;98200.84;;;15.89;46.17
76164;BME280;64897;50.816;4.422;2023-03-08T13:57:23;98200.22;;;15.87;46.70
76164;BME280;64897;50.816;4.422;2023-03-08T13:59:57;98189.69;;;15.87;46.31
76164;BME280;64897;50.816;4.422;2023-03-08T14:02:29;98196.59;;;15.88;46.16
76164;BME280;64897;50.816;4.422;2023-03-08T14:04:57;98189.28;;;15.90;46.77
76164;BME280;64897;50.816;4.422;2023-03-08T14:07:26;98196.19;;;15.91;46.70
76164;BME280;64897;50.816;4.422;2023-03-08T14:09:54;98187.69;;;16.02;47.11
76164;BME280;64897;50.816;4.422;2023-03-08T14:12:28;98183.66;;;16.06;46.31
76164;BME280;64897;50.816;4.422;2023-03-08T14:14:59;98187.50;;;16.04;46.49
76164;BME280;64897;50.816;4.422;2023-03-08T14:17:30;98191.16;;;16.09;46.78
76164;BME280;64897;50.816;4.422;2023-03-08T14:20:00;98188.94;;;16.13;46.62
76164;BME280;64897;50.816;4.422;2023-03-08T14:22:29;98195.81;;;16.20;46.83
76164;BME280;64897;50.816;4.422;2023-03-08T14:24:58;98191.34;;;16.14;47.18
76164;BME280;64897;50.816;4.422;2023-03-08T14:30:16;98189.31;;;16.16;46.93
76164;BME280;64897;50.816;4.422;2023-03-08T14:33:05;98197.44;;;16.15;47.13
76164;BME280;64897;50.816;4.422;2023-03-08T14:35:52;98195.81;;;16.14;47.21
76164;BME280;64897;50.816;4.422;2023-03-08T14:38:27;98205.34;;;16.21;46.99
76164;BME280;64897;50.816;4.422;2023-03-08T14:40:55;98208.00;;;16.21;47.47